Terminal Aerodrome Forecast
Issued by NWS Paducah, KY

Home | Current Version | Previous Version | Text Only | Print | Product List | Glossary On
Versions: 1 2 3 4 5 6 7 8 9 10 11 12 13 14 15 16 17 18 19 20 21 22 23
021
FTUS43 KPAH 190522
TAFEVV
TAF
KEVV 190522Z 1906/2006 VRB03KT P6SM OVC035
     FM191200 VRB03KT 5SM -SHRA BR OVC015
     FM191500 12006KT 4SM SHRA BR OVC009
     FM200300 14007KT 4SM HZ VCSH OVC006=

USA.gov is the U.S. government's official web portal to all federal, state and local government web resources and services.